Boiceville, New York
Current Conditions -  °F | °C
As of 1:53 AM on Sunday 23 Nov 2014 (Local Time) from KPOU Reporting Station
Overcast Overcast  
Wind Chill: 38°   Ceiling: 11000
Heat Index: 43°   Visibility: 10mi
Dew Point: 19°   Wind: 8mph
Humidity: 38%   Direction: 230°SW
Pressure: 30.16"   Gusts: NA
Location:  42°N, 74.27°W
Report Text: KPOU 230653Z AUTO 23007KT 10SM FEW080 OVC110 06/M07 A3016 RMK AO2 SLP210 T00611072 TSNO
Loading
Personal Weather Stations






























Interactive Weather Map New forecast layout! Learn more

10-Day Weather Forecast

Advertisements
Track Severe Weather on mobile